Etusivu
METAR-TAF:

METAR-TAF

Lentoasemat :

Chisholm-Hibbing Airport

Hibbing, Minnesota, Yhdysvallat

Leveyspiiri: 47-23-12N, Pituuspiiri: 092-50-20W, korkeus merenpinnasta: 412 m

Tämänhetkinen sää

Tämä raportti tehtiin 34 minuuttia sitten, kello 08.57 UTC
Tuuli 5 kn lännestä/luoteesta
Lämpötila -23°C
Kosteus 76%
Ilmanpaine 1031 hPa
Näkyvyys: 4.0 km
Muutamia pilviä 800 ft:n korkeudessa
usvaa

METAR: KHIB 190857Z AUTO 29005KT 2 1/2SM HZ FEW008 M23/M26 A3046 RMK AO2 T12331261

Aika: 03:31 (09:31 UTC)

Sääennuste

Tämä raportti tehtiin 24 minuuttia sitten, kello 09.07 UTC
Ennuste voimassa 19. päivästä klo 09 UTC - 20. päivään klo 06 UTC
Tuuli 5 kn luoteesta
Näkyvyys: 3.2 km
Hajonneita pilviä 800 ft:n korkeudessa
usvaa
From 19. päivästä klo 1600 UTC
Tuuli 8 kn luoteesta
Näkyvyys: 10 km
Muutamia pilviä 800 ft:n korkeudessa

TAF: KHIB 190907Z 1909/2006 31005KT 2SM HZ BKN008 FM191600 31008KT P6SM FEW008

Säähavainnot ja -ennusteet yli 4000 lentoasemalta (METAR- ja TAF-raportit).

Käytössä olevat sääasemat on merkitty karttaan keltaisilla ja punaisilla pisteillä.

Aseta hiiri pisteen päälle nähdäksesi sääaseman nimen.

Klikkaa sitten nähdäksesi säähavainnot ja -ennusteet.

Kartan vaihtaminen: klikkaa mustalla rastilla varustettuja vihreitä pisteitä, niin voit zoomata sisään; viivalla varustettua vihreää pistettä, niin voit zoomata ulos tai vihreitä nuolia, niin pääset viereisille kartoille.


METAR-TAF: